createdAt,value
2023-06-15T00:01:42.918Z,63.80
2023-06-15T00:04:11.481Z,63.60
2023-06-15T00:06:39.917Z,63.80
2023-06-15T00:09:08.241Z,64.40
2023-06-15T00:11:36.571Z,63.80
2023-06-15T00:14:07.668Z,64.00
2023-06-15T00:16:42.778Z,64.00
2023-06-15T00:19:15.773Z,63.80
2023-06-15T00:21:49.240Z,63.80
2023-06-15T00:24:19.858Z,63.90
2023-06-15T00:26:48.234Z,63.90
2023-06-15T00:29:16.540Z,63.90
2023-06-15T00:31:44.924Z,64.00
2023-06-15T00:34:16.837Z,64.00
2023-06-15T00:36:45.085Z,64.20
2023-06-15T00:39:13.577Z,64.20
2023-06-15T00:41:45.213Z,64.20
2023-06-15T00:44:15.646Z,64.30
2023-06-15T00:46:46.289Z,64.30
2023-06-15T00:49:17.260Z,64.30
2023-06-15T00:51:48.922Z,64.30
2023-06-15T00:54:22.486Z,64.30
2023-06-15T00:56:51.307Z,64.30
2023-06-15T00:59:20.608Z,64.30
2023-06-15T01:01:50.223Z,64.40
2023-06-15T01:04:20.410Z,64.50
2023-06-15T01:06:53.064Z,64.60
2023-06-15T01:09:22.911Z,64.30
2023-06-15T01:11:54.164Z,64.60
2023-06-15T01:14:26.781Z,64.60
2023-06-15T01:17:00.676Z,64.60
2023-06-15T01:19:54.875Z,64.80
2023-06-15T01:22:36.635Z,64.70
2023-06-15T01:25:09.620Z,64.60
2023-06-15T01:27:40.995Z,64.60
2023-06-15T01:30:14.342Z,64.60
2023-06-15T01:32:42.890Z,64.80
2023-06-15T01:35:14.346Z,64.80
2023-06-15T01:37:45.481Z,64.80
2023-06-15T01:40:14.817Z,64.90
2023-06-15T01:42:46.217Z,64.90
2023-06-15T01:45:18.194Z,65.00
2023-06-15T01:47:48.541Z,64.90
2023-06-15T01:50:18.672Z,65.00
2023-06-15T01:52:47.743Z,65.10
2023-06-15T01:55:16.434Z,65.00
2023-06-15T01:57:48.995Z,65.20
2023-06-15T02:00:20.386Z,65.20
2023-06-15T02:02:48.594Z,65.00
2023-06-15T02:05:17.165Z,65.00
2023-06-15T02:07:45.670Z,65.00
2023-06-15T02:10:20.609Z,65.10
2023-06-15T02:12:50.243Z,65.20
2023-06-15T02:15:20.811Z,65.20
2023-06-15T02:17:59.384Z,65.20
2023-06-15T02:20:29.038Z,65.20
2023-06-15T02:22:59.252Z,65.30
2023-06-15T02:25:28.875Z,65.20
2023-06-15T02:27:59.054Z,65.20
2023-06-15T02:30:27.599Z,65.20
2023-06-15T02:32:56.678Z,65.20
2023-06-15T02:35:25.231Z,65.30
2023-06-15T02:37:53.672Z,65.30
2023-06-15T02:40:22.116Z,65.30
2023-06-15T02:42:50.432Z,65.40
2023-06-15T02:45:22.381Z,65.60
2023-06-15T02:47:50.851Z,65.80
2023-06-15T02:50:21.937Z,65.80
2023-06-15T02:52:59.251Z,65.70
2023-06-15T02:55:27.537Z,65.70
2023-06-15T02:57:55.784Z,65.90
2023-06-15T03:00:50.266Z,65.70
2023-06-15T03:03:32.020Z,65.70
2023-06-15T03:06:21.592Z,65.80
2023-06-15T03:08:50.340Z,65.90
2023-06-15T03:11:37.777Z,65.90
2023-06-15T03:14:08.262Z,65.90
2023-06-15T03:16:47.917Z,66.00
2023-06-15T03:19:17.438Z,66.00
2023-06-15T03:21:47.940Z,66.00
2023-06-15T03:24:17.691Z,66.10
2023-06-15T03:26:48.646Z,66.30
2023-06-15T03:29:16.998Z,66.30
2023-06-15T03:31:50.832Z,66.30
2023-06-15T03:34:19.124Z,66.40
2023-06-15T03:36:52.530Z,66.50
2023-06-15T03:39:21.754Z,66.60
2023-06-15T03:41:50.114Z,66.60
2023-06-15T03:44:18.550Z,66.80
2023-06-15T03:46:49.164Z,66.90
2023-06-15T03:49:19.815Z,66.90
2023-06-15T03:51:48.652Z,66.90
2023-06-15T03:54:17.405Z,67.10
2023-06-15T03:56:45.870Z,67.30
2023-06-15T03:59:16.543Z,67.60
2023-06-15T04:01:48.470Z,67.70
2023-06-15T04:04:19.011Z,67.60
2023-06-15T04:06:54.321Z,67.80
2023-06-15T04:09:22.553Z,67.90
2023-06-15T04:11:53.153Z,67.80
2023-06-15T04:14:21.598Z,67.80
2023-06-15T04:16:53.226Z,67.60
2023-06-15T04:19:23.524Z,67.40
2023-06-15T04:21:54.946Z,67.40
2023-06-15T04:24:23.927Z,67.50
2023-06-15T04:26:52.578Z,67.60
2023-06-15T04:29:23.836Z,67.70
2023-06-15T04:31:56.226Z,67.70
2023-06-15T04:34:27.752Z,67.60
2023-06-15T04:36:57.381Z,67.60
2023-06-15T04:39:26.964Z,67.50
2023-06-15T04:41:59.066Z,67.50
2023-06-15T04:44:27.697Z,67.50
2023-06-15T04:46:57.270Z,67.50
2023-06-15T04:49:28.080Z,67.50
2023-06-15T04:51:57.242Z,67.40
2023-06-15T04:54:26.355Z,67.50
2023-06-15T04:56:55.087Z,67.50
2023-06-15T04:59:23.258Z,67.50
2023-06-15T05:01:52.230Z,67.50
2023-06-15T05:04:32.887Z,67.40
2023-06-15T05:07:04.734Z,67.40
2023-06-15T05:09:42.369Z,67.30
2023-06-15T05:12:23.153Z,67.30
2023-06-15T05:14:51.880Z,67.30
2023-06-15T05:17:20.703Z,67.40
2023-06-15T05:19:52.239Z,67.40
2023-06-15T05:22:20.433Z,67.20
2023-06-15T05:24:51.929Z,67.30
2023-06-15T05:27:21.325Z,67.10
2023-06-15T05:29:49.869Z,67.30
2023-06-15T05:32:19.069Z,67.40
2023-06-15T05:34:48.035Z,67.10
2023-06-15T05:37:17.657Z,67.10
2023-06-15T05:39:52.805Z,66.90
2023-06-15T05:42:21.559Z,66.90
2023-06-15T05:44:52.099Z,67.10
2023-06-15T05:47:20.557Z,66.90
2023-06-15T05:49:49.986Z,66.80
2023-06-15T05:52:20.390Z,66.50
2023-06-15T05:55:05.836Z,66.70
2023-06-15T05:57:36.961Z,66.40
2023-06-15T06:00:05.812Z,66.60
2023-06-15T06:02:43.166Z,66.60
2023-06-15T06:05:19.387Z,66.70
2023-06-15T06:07:51.801Z,66.60
2023-06-15T06:10:20.501Z,66.60
2023-06-15T06:12:57.759Z,66.60
2023-06-15T06:15:29.216Z,66.60
2023-06-15T06:20:28.789Z,66.60
2023-06-15T06:22:58.471Z,66.70
2023-06-15T06:25:26.846Z,66.80
2023-06-15T06:27:55.186Z,66.70
2023-06-15T06:30:25.531Z,66.70
2023-06-15T06:32:53.808Z,66.80
2023-06-15T06:35:22.800Z,66.80
2023-06-15T06:37:51.086Z,67.70
2023-06-15T06:40:21.108Z,67.10
2023-06-15T06:42:49.369Z,67.20
2023-06-15T06:45:17.837Z,67.70
2023-06-15T06:47:46.208Z,68.10
2023-06-15T06:50:17.183Z,68.20
2023-06-15T06:52:45.464Z,68.60
2023-06-15T06:55:13.653Z,68.70
2023-06-15T06:57:43.209Z,68.80
2023-06-15T07:00:12.526Z,69.00
2023-06-15T07:02:43.114Z,69.00
2023-06-15T07:05:11.516Z,68.90
2023-06-15T07:07:40.061Z,69.00
2023-06-15T07:10:09.668Z,69.30
2023-06-15T07:12:37.940Z,69.20
2023-06-15T07:15:08.791Z,69.40
2023-06-15T07:17:37.090Z,69.40
2023-06-15T07:20:09.063Z,69.40
2023-06-15T07:22:37.302Z,69.30
2023-06-15T07:25:07.769Z,69.30
2023-06-15T07:27:36.114Z,69.10
2023-06-15T07:30:04.630Z,69.00
2023-06-15T07:32:34.465Z,68.80
2023-06-15T07:35:05.870Z,68.60
2023-06-15T07:37:37.304Z,68.30
2023-06-15T07:40:06.566Z,67.90
2023-06-15T07:42:34.820Z,67.40
2023-06-15T07:45:02.985Z,66.60
2023-06-15T07:47:31.284Z,65.80
2023-06-15T07:50:00.976Z,65.60
2023-06-15T07:52:29.159Z,65.40
2023-06-15T07:54:57.264Z,65.10
2023-06-15T07:57:25.484Z,64.70
2023-06-15T07:59:53.599Z,64.30
2023-06-15T08:02:21.808Z,63.80
2023-06-15T08:04:52.306Z,63.60
2023-06-15T08:07:21.937Z,63.00
2023-06-15T08:09:52.438Z,62.60
2023-06-15T08:12:20.704Z,62.60
2023-06-15T08:14:49.013Z,62.20
2023-06-15T08:17:17.589Z,62.10
2023-06-15T08:19:48.410Z,62.10
2023-06-15T08:22:16.638Z,61.90
2023-06-15T08:24:50.764Z,61.60
2023-06-15T08:27:18.937Z,61.20
2023-06-15T08:29:49.631Z,61.00
2023-06-15T08:32:17.934Z,60.70
2023-06-15T08:34:48.787Z,60.50
2023-06-15T08:37:17.000Z,60.20
2023-06-15T08:39:45.371Z,61.00
2023-06-15T08:42:19.826Z,60.30
2023-06-15T08:44:49.124Z,60.10
2023-06-15T08:47:17.516Z,60.20
2023-06-15T08:49:47.037Z,60.30
2023-06-15T08:52:17.292Z,60.30
2023-06-15T08:54:46.238Z,60.40
2023-06-15T08:57:16.975Z,60.50
2023-06-15T08:59:46.568Z,60.50
2023-06-15T09:02:21.871Z,60.30
2023-06-15T09:04:51.339Z,60.00
2023-06-15T09:07:20.117Z,60.20
2023-06-15T09:10:16.604Z,60.40
2023-06-15T09:12:48.230Z,60.20
2023-06-15T09:15:21.289Z,60.20
2023-06-15T09:17:52.822Z,59.70
2023-06-15T09:20:22.380Z,59.30
2023-06-15T09:22:53.008Z,58.70
2023-06-15T09:25:22.870Z,58.60
2023-06-15T09:27:57.439Z,58.10
2023-06-15T09:30:33.502Z,58.10
2023-06-15T09:33:14.374Z,57.70
2023-06-15T09:35:58.793Z,57.40
2023-06-15T09:38:27.348Z,57.00
2023-06-15T09:40:55.991Z,56.80
2023-06-15T09:43:34.952Z,57.00
2023-06-15T09:46:03.861Z,57.00
2023-06-15T09:48:32.611Z,57.10
2023-06-15T09:51:03.602Z,56.60
2023-06-15T09:53:32.527Z,56.60
2023-06-15T09:56:06.950Z,56.60
2023-06-15T09:58:44.084Z,56.50
2023-06-15T10:01:14.752Z,56.30
2023-06-15T10:03:44.593Z,56.20
2023-06-15T10:06:17.453Z,56.10
2023-06-15T10:08:53.518Z,56.10
2023-06-15T10:11:25.689Z,56.20
2023-06-15T10:14:03.570Z,56.40
2023-06-15T10:16:33.673Z,56.10
2023-06-15T10:19:06.473Z,55.90
2023-06-15T10:21:51.521Z,55.70
2023-06-15T10:24:25.222Z,55.60
2023-06-15T10:26:54.158Z,55.20
2023-06-15T10:29:32.550Z,54.90
2023-06-15T10:38:38.606Z,54.30
2023-06-15T10:41:27.972Z,54.30
2023-06-15T10:44:33.970Z,54.30
2023-06-15T10:47:12.712Z,54.20
2023-06-15T10:49:51.097Z,54.40
2023-06-15T10:52:47.269Z,53.60
2023-06-15T11:06:22.664Z,52.80
2023-06-15T11:08:54.597Z,52.20
2023-06-15T11:20:59.839Z,51.60
2023-06-15T12:12:03.670Z,67.10
2023-06-15T12:18:34.280Z,66.80
2023-06-15T13:39:04.028Z,41.10
2023-06-15T13:41:40.684Z,40.60
2023-06-15T13:44:09.297Z,40.00
2023-06-15T13:46:38.487Z,41.10
2023-06-15T13:49:10.379Z,40.40
2023-06-15T13:51:39.251Z,39.00
2023-06-15T13:54:08.873Z,38.30
2023-06-15T13:56:37.207Z,37.80
2023-06-15T13:59:08.726Z,37.70
2023-06-15T14:01:40.493Z,37.50
2023-06-15T14:04:09.210Z,37.00
2023-06-15T14:06:40.415Z,36.80
2023-06-15T14:09:11.897Z,37.10
2023-06-15T14:11:40.754Z,37.00
2023-06-15T14:14:09.444Z,36.80
2023-06-15T14:16:37.851Z,36.50
2023-06-15T14:19:20.430Z,36.40
2023-06-15T14:22:00.198Z,36.60
2023-06-15T14:24:30.247Z,37.30
2023-06-15T14:27:01.012Z,37.00
2023-06-15T14:29:58.041Z,37.30
2023-06-15T14:32:36.167Z,37.20
2023-06-15T14:35:05.880Z,37.00
2023-06-15T14:37:36.659Z,36.90
2023-06-15T14:40:07.514Z,36.80
2023-06-15T14:42:39.726Z,36.70
2023-06-15T14:55:03.319Z,38.30
2023-06-15T14:57:34.191Z,38.20
2023-06-15T15:25:33.405Z,37.20
2023-06-15T15:28:02.424Z,37.80
2023-06-15T15:30:31.882Z,38.10
2023-06-15T15:33:28.234Z,38.00
2023-06-15T15:38:57.095Z,38.80
2023-06-15T15:41:27.375Z,39.10
2023-06-15T15:44:12.476Z,39.90
2023-06-15T15:52:34.766Z,41.00
2023-06-15T16:23:57.457Z,42.00
2023-06-15T16:41:23.193Z,38.90
2023-06-15T16:44:18.799Z,39.10
2023-06-15T16:46:51.039Z,39.50
2023-06-15T16:49:20.797Z,40.30
2023-06-15T16:51:50.106Z,40.10
2023-06-15T16:57:22.943Z,41.10
2023-06-15T17:00:07.270Z,41.80
2023-06-15T17:02:41.188Z,42.50
2023-06-15T17:05:13.298Z,42.70
2023-06-15T17:07:42.217Z,43.10
2023-06-15T17:10:17.282Z,43.20
2023-06-15T17:12:50.211Z,43.60
2023-06-15T17:15:24.664Z,43.60
2023-06-15T17:17:55.398Z,43.60
2023-06-15T17:20:42.760Z,43.90
2023-06-15T17:23:12.076Z,43.90
2023-06-15T17:25:40.966Z,43.80
2023-06-15T17:28:17.282Z,43.70
2023-06-15T17:33:29.304Z,44.10
2023-06-15T17:36:10.449Z,44.00
2023-06-15T17:38:41.442Z,43.90
2023-06-15T17:41:16.992Z,44.30
2023-06-15T17:44:05.641Z,44.80
2023-06-15T17:49:47.642Z,44.60
2023-06-15T17:53:09.657Z,45.10
2023-06-15T17:56:03.297Z,45.20
2023-06-15T17:58:32.665Z,45.50
2023-06-15T18:01:34.625Z,46.00
2023-06-15T18:04:27.554Z,46.50
2023-06-15T18:07:22.373Z,47.00
2023-06-15T18:10:47.465Z,47.30
2023-06-15T18:13:48.928Z,48.20
2023-06-15T18:16:37.781Z,48.60
2023-06-15T18:25:50.599Z,49.50
2023-06-15T18:56:14.622Z,52.20
2023-06-15T19:04:05.229Z,52.80
2023-06-15T19:12:04.692Z,53.30
2023-06-15T19:18:45.561Z,53.70
2023-06-15T19:21:47.744Z,54.30
2023-06-15T19:33:56.202Z,55.40
2023-06-15T19:36:51.985Z,55.50
2023-06-15T19:39:37.302Z,56.10
2023-06-15T19:42:15.005Z,56.40
2023-06-15T19:45:13.912Z,56.50
2023-06-15T19:48:01.132Z,56.80
2023-06-15T19:51:03.771Z,57.20
2023-06-15T19:53:48.074Z,57.30
2023-06-15T19:57:01.491Z,58.00
2023-06-15T19:59:57.164Z,58.00
2023-06-15T20:02:28.739Z,57.90
2023-06-15T20:05:07.204Z,58.30
2023-06-15T20:08:04.345Z,58.40
2023-06-15T20:10:37.095Z,59.10
2023-06-15T20:13:09.306Z,59.10
2023-06-15T20:15:48.186Z,59.50
2023-06-15T20:19:05.411Z,60.40
2023-06-15T20:21:34.108Z,59.90
2023-06-15T20:28:10.668Z,60.40
2023-06-15T20:30:46.833Z,60.00
2023-06-15T20:33:17.273Z,60.10
2023-06-15T20:35:49.463Z,60.70
2023-06-15T20:38:22.643Z,61.10
2023-06-15T20:40:56.325Z,61.20
2023-06-15T20:44:13.443Z,61.50
2023-06-15T20:46:44.188Z,61.80
2023-06-15T20:49:14.032Z,61.80
2023-06-15T20:51:44.964Z,62.00
2023-06-15T20:54:15.090Z,62.30
2023-06-15T20:56:45.058Z,62.70
2023-06-15T20:59:21.617Z,62.70
2023-06-15T21:01:50.564Z,62.90
2023-06-15T21:04:56.307Z,62.80
2023-06-15T21:07:28.092Z,63.00
2023-06-15T21:09:56.577Z,62.90
2023-06-15T21:12:25.671Z,63.10
2023-06-15T21:14:55.491Z,63.10
2023-06-15T21:17:23.923Z,63.30
2023-06-15T21:19:54.800Z,63.30
2023-06-15T21:22:23.209Z,63.50
2023-06-15T21:24:51.851Z,63.50
2023-06-15T21:27:23.190Z,63.60
2023-06-15T21:29:51.899Z,63.80
2023-06-15T21:32:22.339Z,63.70
2023-06-15T21:34:51.518Z,63.60
2023-06-15T21:37:21.253Z,63.70
2023-06-15T21:39:50.453Z,63.60
2023-06-15T21:42:20.221Z,63.60
2023-06-15T21:44:57.144Z,63.80
2023-06-15T21:47:29.381Z,63.60
2023-06-15T21:49:58.175Z,64.00
2023-06-15T21:52:27.132Z,64.20
2023-06-15T21:54:55.585Z,64.10
2023-06-15T21:57:24.332Z,64.20
2023-06-15T21:59:53.190Z,64.30
2023-06-15T22:02:21.725Z,64.40
2023-06-15T22:04:51.693Z,64.40
2023-06-15T22:07:20.104Z,64.50
2023-06-15T22:09:48.857Z,64.80
2023-06-15T22:12:20.949Z,64.90
2023-06-15T22:14:49.346Z,65.00
2023-06-15T22:17:17.781Z,65.10
2023-06-15T22:19:46.024Z,65.30
2023-06-15T22:22:18.276Z,65.30
2023-06-15T22:24:46.517Z,65.70
2023-06-15T22:27:15.316Z,65.60
2023-06-15T22:29:44.161Z,65.60
2023-06-15T22:32:20.895Z,66.00
2023-06-15T22:34:49.662Z,65.90
2023-06-15T22:37:19.816Z,65.90
2023-06-15T22:39:48.661Z,66.20
2023-06-15T22:42:17.092Z,67.10
2023-06-15T22:44:46.003Z,66.60
2023-06-15T22:47:18.481Z,66.50
2023-06-15T22:49:47.086Z,67.00
2023-06-15T22:52:15.462Z,66.80
2023-06-15T22:54:48.608Z,66.80
2023-06-15T22:57:17.357Z,66.90
2023-06-15T22:59:55.097Z,66.90
2023-06-15T23:02:24.875Z,67.40
2023-06-15T23:04:56.907Z,67.20
2023-06-15T23:07:30.240Z,67.60
2023-06-15T23:10:02.093Z,67.40
2023-06-15T23:12:31.693Z,67.40
2023-06-15T23:15:02.646Z,67.60
2023-06-15T23:17:43.293Z,67.70
2023-06-15T23:20:14.737Z,67.80
2023-06-15T23:22:43.755Z,67.80
2023-06-15T23:25:14.774Z,67.90
2023-06-15T23:27:43.442Z,68.20
2023-06-15T23:30:12.876Z,68.50
2023-06-15T23:32:42.557Z,68.30
2023-06-15T23:35:11.913Z,68.60
2023-06-15T23:37:45.158Z,68.60
2023-06-15T23:40:15.977Z,69.00
2023-06-15T23:42:44.467Z,69.00
2023-06-15T23:45:15.810Z,68.90
2023-06-15T23:47:44.395Z,68.90
2023-06-15T23:50:12.889Z,69.20
2023-06-15T23:52:41.490Z,69.40
2023-06-15T23:55:10.804Z,69.60
2023-06-15T23:57:41.444Z,69.40
